createdAt,value
2022-10-17T00:01:06.394Z,10.20
2022-10-17T00:03:36.832Z,10.65
2022-10-17T00:06:10.986Z,10.39
2022-10-17T00:08:40.917Z,10.56
2022-10-17T00:11:14.599Z,10.88
2022-10-17T00:13:42.612Z,10.98
2022-10-17T00:16:10.505Z,11.50
2022-10-17T00:18:38.479Z,12.37
2022-10-17T00:21:06.939Z,11.65
2022-10-17T00:23:34.966Z,12.00
2022-10-17T00:26:05.956Z,12.54
2022-10-17T00:28:33.968Z,12.32
2022-10-17T00:31:05.176Z,12.29
2022-10-17T00:33:35.314Z,11.90
2022-10-17T00:36:09.453Z,11.53
2022-10-17T00:38:37.471Z,11.48
2022-10-17T00:41:06.134Z,11.44
2022-10-17T00:44:28.078Z,11.38
2022-10-17T00:47:10.569Z,11.27
2022-10-17T00:49:40.047Z,11.45
2022-10-17T00:52:14.417Z,11.63
2022-10-17T00:54:48.746Z,11.70
2022-10-17T00:57:17.857Z,11.35
2022-10-17T00:59:52.233Z,11.62
2022-10-17T01:02:21.758Z,11.00
2022-10-17T01:04:55.126Z,11.13
2022-10-17T01:07:23.571Z,10.75
2022-10-17T01:09:51.664Z,10.78
2022-10-17T01:12:37.358Z,10.63
2022-10-17T01:15:11.296Z,10.00
2022-10-17T01:18:04.062Z,10.71
2022-10-17T01:20:52.207Z,11.36
2022-10-17T01:23:51.042Z,11.26
2022-10-17T01:26:45.523Z,10.72
2022-10-17T01:29:13.513Z,10.81
2022-10-17T01:32:00.272Z,11.02
2022-10-17T01:34:33.864Z,10.70
2022-10-17T01:37:30.639Z,11.16
2022-10-17T01:40:12.841Z,11.02
2022-10-17T01:42:43.727Z,10.14
2022-10-17T01:45:18.731Z,10.50
2022-10-17T01:47:49.899Z,10.19
2022-10-17T01:50:40.059Z,10.13
2022-10-17T01:53:14.986Z,9.81
2022-10-17T01:55:46.437Z,9.75
2022-10-17T01:58:42.094Z,9.58
2022-10-17T02:01:12.784Z,9.61
2022-10-17T02:03:44.357Z,9.46
2022-10-17T02:06:12.336Z,10.08
2022-10-17T02:08:50.632Z,10.30
2022-10-17T02:11:21.930Z,9.96
2022-10-17T02:14:18.673Z,9.63
2022-10-17T02:16:52.670Z,9.69
2022-10-17T02:19:36.790Z,9.48
2022-10-17T02:22:28.942Z,9.48
2022-10-17T02:25:13.518Z,9.79
2022-10-17T02:27:59.269Z,9.55
2022-10-17T02:30:46.076Z,9.54
2022-10-17T02:33:19.431Z,9.32
2022-10-17T02:35:52.555Z,9.58
2022-10-17T02:38:23.054Z,9.26
2022-10-17T02:40:53.644Z,9.02
2022-10-17T02:43:23.266Z,9.25
2022-10-17T02:45:53.916Z,9.68
2022-10-17T02:48:27.015Z,9.43
2022-10-17T02:51:02.369Z,9.56
2022-10-17T02:53:43.229Z,10.28
2022-10-17T02:56:19.183Z,10.76
2022-10-17T02:58:53.619Z,11.06
2022-10-17T03:01:22.196Z,10.75
2022-10-17T03:03:50.243Z,11.39
2022-10-17T03:06:18.290Z,11.53
2022-10-17T03:08:47.336Z,11.77
2022-10-17T03:11:15.575Z,13.08
2022-10-17T03:13:43.542Z,13.19
2022-10-17T03:16:11.504Z,12.94
2022-10-17T03:18:39.994Z,13.64
2022-10-17T03:21:08.830Z,13.76
2022-10-17T03:23:36.866Z,13.59
2022-10-17T03:26:07.642Z,13.78
2022-10-17T03:28:36.548Z,14.43
2022-10-17T03:31:13.849Z,14.10
2022-10-17T03:33:42.252Z,14.50
2022-10-17T03:36:13.204Z,15.93
2022-10-17T03:38:42.839Z,16.22
2022-10-17T03:41:11.562Z,16.62
2022-10-17T03:43:40.929Z,17.97
2022-10-17T03:46:09.598Z,16.96
2022-10-17T03:48:38.531Z,16.97
2022-10-17T03:51:09.558Z,17.35
2022-10-17T03:53:47.963Z,17.44
2022-10-17T03:56:19.159Z,17.77
2022-10-17T03:58:55.594Z,17.88
2022-10-17T04:01:24.363Z,17.72
2022-10-17T04:03:54.807Z,18.74
2022-10-17T04:06:23.267Z,19.12
2022-10-17T04:08:51.226Z,19.53
2022-10-17T04:11:39.434Z,20.06
2022-10-17T04:14:08.193Z,20.14
2022-10-17T04:16:39.087Z,20.17
2022-10-17T04:19:13.905Z,20.57
2022-10-17T04:21:45.639Z,19.88
2022-10-17T04:24:15.144Z,19.33
2022-10-17T04:27:03.359Z,19.45
2022-10-17T04:29:34.155Z,20.76
2022-10-17T04:32:11.035Z,20.31
2022-10-17T04:34:50.095Z,19.31
2022-10-17T04:37:19.275Z,19.24
2022-10-17T04:39:48.819Z,19.26
2022-10-17T04:42:16.986Z,19.40
2022-10-17T04:44:44.991Z,21.14
2022-10-17T04:47:15.001Z,21.46
2022-10-17T04:49:43.977Z,22.59
2022-10-17T04:52:12.519Z,23.71
2022-10-17T04:54:45.157Z,25.03
2022-10-17T04:57:14.999Z,36.39
2022-10-17T04:59:49.520Z,39.26
2022-10-17T05:02:46.618Z,39.29
2022-10-17T05:05:15.200Z,40.69
2022-10-17T05:07:45.449Z,42.32
2022-10-17T05:10:18.136Z,42.89
2022-10-17T05:12:49.131Z,41.13
2022-10-17T05:15:19.135Z,40.79
2022-10-17T05:17:47.207Z,41.56
2022-10-17T05:20:15.337Z,41.18
2022-10-17T05:22:43.197Z,44.37
2022-10-17T05:25:12.687Z,44.88
2022-10-17T05:27:40.634Z,43.87
2022-10-17T05:30:09.956Z,41.05
2022-10-17T05:32:41.253Z,39.99
2022-10-17T05:35:09.743Z,40.18
2022-10-17T05:37:39.239Z,40.96
2022-10-17T05:40:08.314Z,40.46
2022-10-17T05:42:37.067Z,41.03
2022-10-17T05:45:05.559Z,41.96
2022-10-17T05:47:33.648Z,43.15
2022-10-17T05:50:01.828Z,43.17
2022-10-17T05:52:38.905Z,42.28
2022-10-17T05:55:11.692Z,41.86
2022-10-17T05:57:40.699Z,41.24
2022-10-17T06:00:14.141Z,40.09
2022-10-17T06:02:49.582Z,40.49
2022-10-17T06:05:20.335Z,40.49
2022-10-17T06:07:52.678Z,40.06
2022-10-17T06:10:22.044Z,38.28
2022-10-17T06:12:50.198Z,38.24
2022-10-17T06:15:18.283Z,37.73
2022-10-17T06:17:51.105Z,36.95
2022-10-17T06:20:19.078Z,36.44
2022-10-17T06:22:47.120Z,36.68
2022-10-17T06:25:22.555Z,36.25
2022-10-17T06:27:50.708Z,35.32
2022-10-17T06:30:18.609Z,34.44
2022-10-17T06:32:46.750Z,35.99
2022-10-17T06:35:14.842Z,36.29
2022-10-17T06:37:43.053Z,36.95
2022-10-17T06:40:12.450Z,37.01
2022-10-17T06:42:41.910Z,37.60
2022-10-17T06:45:30.069Z,37.58
2022-10-17T06:48:18.195Z,37.66
2022-10-17T06:51:06.682Z,37.67
2022-10-17T06:53:45.002Z,38.93
2022-10-17T06:56:48.335Z,39.89
2022-10-17T06:59:28.296Z,41.83
2022-10-17T07:02:02.850Z,41.44
2022-10-17T07:04:32.068Z,40.65
2022-10-17T07:07:03.051Z,41.25
2022-10-17T07:09:33.020Z,40.14
2022-10-17T07:12:01.074Z,38.41
2022-10-17T07:14:32.177Z,37.70
2022-10-17T07:17:02.017Z,37.31
2022-10-17T07:19:32.794Z,35.99
2022-10-17T07:22:00.813Z,35.75
2022-10-17T07:24:28.934Z,34.96
2022-10-17T07:27:08.738Z,32.86
2022-10-17T07:29:36.813Z,32.64
2022-10-17T07:32:30.972Z,35.00
2022-10-17T07:35:00.134Z,39.61
2022-10-17T07:37:29.470Z,40.04
2022-10-17T07:40:00.049Z,37.25
2022-10-17T07:42:28.660Z,35.27
2022-10-17T07:44:57.033Z,38.63
2022-10-17T07:47:27.290Z,44.57
2022-10-17T07:49:55.641Z,44.49
2022-10-17T07:52:23.601Z,45.32
2022-10-17T07:54:51.600Z,43.87
2022-10-17T07:57:19.515Z,44.15
2022-10-17T07:59:48.154Z,43.96
2022-10-17T08:02:23.124Z,43.93
2022-10-17T08:04:51.970Z,45.34
2022-10-17T08:07:25.331Z,54.12
2022-10-17T08:09:54.959Z,59.62
2022-10-17T08:12:22.992Z,66.27
2022-10-17T08:14:50.954Z,77.35
2022-10-17T08:17:18.894Z,72.88
2022-10-17T08:19:46.823Z,68.93
2022-10-17T08:22:14.763Z,43.90
2022-10-17T08:24:42.980Z,34.27
2022-10-17T08:27:13.394Z,32.59
2022-10-17T08:29:41.358Z,32.37
2022-10-17T08:32:10.160Z,31.62
2022-10-17T08:34:38.382Z,31.50
2022-10-17T08:37:06.347Z,33.06
2022-10-17T08:39:34.331Z,32.56
2022-10-17T08:42:02.170Z,32.11
2022-10-17T08:44:33.255Z,31.73
2022-10-17T08:47:05.475Z,31.99
2022-10-17T08:49:53.263Z,31.74
2022-10-17T08:52:37.656Z,32.02
2022-10-17T08:55:16.088Z,33.07
2022-10-17T08:57:44.580Z,33.21
2022-10-17T09:00:19.554Z,32.62
2022-10-17T09:03:12.473Z,32.48
2022-10-17T09:05:51.439Z,32.81
2022-10-17T09:08:32.006Z,33.33
2022-10-17T09:11:11.935Z,33.84
2022-10-17T09:14:05.049Z,33.54
2022-10-17T09:17:05.301Z,34.47
2022-10-17T09:19:45.161Z,34.29
2022-10-17T09:22:19.192Z,33.59
2022-10-17T09:24:58.519Z,34.53
2022-10-17T09:27:33.046Z,35.92
2022-10-17T09:30:46.481Z,34.59
2022-10-17T09:33:35.211Z,34.77
2022-10-17T09:36:19.424Z,34.88
2022-10-17T09:38:56.992Z,34.45
2022-10-17T09:41:51.015Z,34.46
2022-10-17T09:44:32.007Z,34.23
2022-10-17T09:47:15.236Z,34.96
2022-10-17T09:49:45.395Z,34.58
2022-10-17T09:52:18.207Z,36.13
2022-10-17T09:54:51.810Z,35.80
2022-10-17T09:57:21.924Z,36.30
2022-10-17T10:00:00.268Z,37.19
2022-10-17T10:02:31.068Z,37.23
2022-10-17T10:05:19.089Z,36.61
2022-10-17T10:08:03.588Z,37.46
2022-10-17T10:10:32.622Z,37.08
2022-10-17T10:13:12.726Z,38.10
2022-10-17T10:15:45.844Z,38.61
2022-10-17T10:18:36.058Z,39.81
2022-10-17T10:21:09.779Z,40.78
2022-10-17T10:23:42.846Z,40.17
2022-10-17T10:26:30.224Z,41.10
2022-10-17T10:29:05.546Z,41.36
2022-10-17T10:31:42.674Z,42.21
2022-10-17T10:34:31.459Z,41.13
2022-10-17T10:37:01.441Z,41.80
2022-10-17T10:39:52.427Z,39.66
2022-10-17T10:42:24.630Z,38.67
2022-10-17T10:44:55.375Z,41.19
2022-10-17T10:47:32.289Z,41.39
2022-10-17T10:50:21.659Z,43.89
2022-10-17T10:53:15.691Z,44.78
2022-10-17T10:55:57.754Z,44.11
2022-10-17T10:58:48.207Z,43.48
2022-10-17T11:01:47.123Z,45.09
2022-10-17T11:04:23.581Z,43.55
2022-10-17T11:06:55.512Z,44.62
2022-10-17T11:10:06.454Z,43.57
2022-10-17T11:15:32.125Z,54.69
2022-10-17T11:18:07.166Z,57.28
2022-10-17T11:20:53.407Z,60.05
2022-10-17T11:23:29.932Z,60.20
2022-10-17T11:26:03.285Z,61.62
2022-10-17T11:28:31.655Z,61.06
2022-10-17T11:31:07.967Z,62.56
2022-10-17T11:33:50.923Z,65.06
2022-10-17T11:36:24.509Z,65.43
2022-10-17T11:39:00.842Z,65.49
2022-10-17T11:41:48.922Z,62.71
2022-10-17T11:44:36.427Z,61.93
2022-10-17T11:47:21.793Z,59.12
2022-10-17T11:53:16.831Z,52.93
2022-10-17T11:55:46.754Z,54.09
2022-10-17T11:58:35.880Z,49.20
2022-10-17T12:01:18.507Z,47.03
2022-10-17T12:03:59.447Z,45.43
2022-10-17T12:06:52.086Z,45.67
2022-10-17T12:09:30.260Z,45.33
2022-10-17T12:12:01.019Z,44.20
2022-10-17T12:14:46.791Z,43.28
2022-10-17T12:17:40.507Z,41.04
2022-10-17T12:20:30.517Z,42.12
2022-10-17T12:23:10.896Z,41.00
2022-10-17T12:25:50.595Z,40.08
2022-10-17T12:28:30.725Z,38.83
2022-10-17T12:31:16.127Z,36.84
2022-10-17T12:33:46.799Z,34.10
2022-10-17T12:36:17.804Z,33.65
2022-10-17T12:38:50.151Z,33.01
2022-10-17T12:41:40.278Z,37.64
2022-10-17T12:44:14.516Z,36.78
2022-10-17T12:46:57.855Z,36.48
2022-10-17T12:49:43.778Z,36.07
2022-10-17T12:52:22.574Z,35.67
2022-10-17T12:55:00.609Z,36.31
2022-10-17T12:58:00.120Z,34.10
2022-10-17T13:00:59.542Z,34.13
2022-10-17T13:03:43.255Z,33.63
2022-10-17T13:06:20.783Z,33.62
2022-10-17T13:08:56.102Z,33.81
2022-10-17T13:11:29.189Z,32.68
2022-10-17T13:14:00.607Z,32.53
2022-10-17T13:16:37.815Z,31.14
2022-10-17T13:19:20.945Z,31.30
2022-10-17T13:21:59.891Z,31.14
2022-10-17T13:24:31.576Z,29.72
2022-10-17T13:27:00.821Z,29.19
2022-10-17T13:29:30.914Z,28.65
2022-10-17T13:32:04.142Z,30.42
2022-10-17T13:34:33.845Z,30.50
2022-10-17T13:37:05.597Z,31.20
2022-10-17T13:40:00.236Z,33.99
2022-10-17T13:42:39.273Z,32.08
2022-10-17T13:45:20.851Z,33.35
2022-10-17T13:47:49.031Z,33.25
2022-10-17T13:50:43.725Z,33.26
2022-10-17T13:53:30.140Z,35.14
2022-10-17T13:56:22.928Z,35.77
2022-10-17T13:58:49.961Z,33.45
2022-10-17T14:01:19.651Z,34.71
2022-10-17T14:03:51.866Z,34.01
2022-10-17T14:06:27.617Z,34.27
2022-10-17T14:09:05.638Z,34.38
2022-10-17T14:11:43.465Z,34.25
2022-10-17T14:14:23.949Z,33.62
2022-10-17T14:16:52.463Z,34.35
2022-10-17T14:19:29.092Z,33.94
2022-10-17T14:22:17.595Z,40.41
2022-10-17T14:24:45.823Z,40.30
2022-10-17T14:28:04.515Z,34.84
2022-10-17T14:30:55.687Z,33.34
2022-10-17T14:33:26.094Z,33.00
2022-10-17T14:35:57.758Z,33.58
2022-10-17T14:38:26.696Z,33.31
2022-10-17T14:41:40.968Z,33.12
2022-10-17T14:44:04.752Z,32.65
2022-10-17T14:46:35.112Z,31.01
2022-10-17T14:49:26.467Z,33.12
2022-10-17T14:52:14.928Z,36.49
2022-10-17T14:54:47.772Z,38.54
2022-10-17T14:57:15.857Z,39.10
2022-10-17T14:59:53.694Z,35.38
2022-10-17T15:02:30.246Z,34.83
2022-10-17T15:04:58.625Z,34.49
2022-10-17T15:07:26.502Z,34.06
2022-10-17T15:09:54.490Z,33.50
2022-10-17T15:12:25.256Z,35.63
2022-10-17T15:14:53.979Z,34.15
2022-10-17T15:17:28.679Z,34.94
2022-10-17T15:19:57.740Z,33.79
2022-10-17T15:22:25.603Z,34.41
2022-10-17T15:24:53.571Z,36.80
2022-10-17T15:27:26.460Z,39.81
2022-10-17T15:29:54.450Z,37.44
2022-10-17T15:32:22.362Z,35.90
2022-10-17T15:34:50.370Z,36.54
2022-10-17T15:37:25.816Z,37.67
2022-10-17T15:39:55.300Z,36.59
2022-10-17T15:42:28.244Z,49.83
2022-10-17T15:44:57.365Z,43.00
2022-10-17T15:47:33.649Z,38.47
2022-10-17T15:50:03.296Z,37.65
2022-10-17T15:52:31.327Z,36.22
2022-10-17T15:55:02.441Z,37.21
2022-10-17T15:57:38.208Z,37.90
2022-10-17T16:00:16.263Z,37.44
2022-10-17T16:02:45.454Z,39.52
2022-10-17T16:05:23.410Z,38.96
2022-10-17T16:07:52.746Z,37.51
2022-10-17T16:10:22.316Z,36.64
2022-10-17T16:12:50.654Z,36.47
2022-10-17T16:15:25.555Z,37.50
2022-10-17T16:17:55.315Z,38.10
2022-10-17T16:20:24.629Z,37.86
2022-10-17T16:22:59.595Z,38.20
2022-10-17T16:25:29.899Z,38.82
2022-10-17T16:28:00.178Z,38.62
2022-10-17T16:30:30.840Z,38.99
2022-10-17T16:32:58.827Z,39.03
2022-10-17T16:35:33.178Z,37.47
2022-10-17T16:38:07.042Z,36.84
2022-10-17T16:40:38.399Z,38.51
2022-10-17T16:43:07.539Z,40.05
2022-10-17T16:45:36.299Z,39.32
2022-10-17T16:48:04.538Z,38.94
2022-10-17T16:50:35.562Z,39.43
2022-10-17T16:53:04.201Z,40.76
2022-10-17T16:55:32.445Z,39.41
2022-10-17T16:58:01.450Z,40.68
2022-10-17T17:00:29.541Z,39.19
2022-10-17T17:02:57.542Z,39.71
2022-10-17T17:05:25.677Z,40.49
2022-10-17T17:07:55.610Z,40.93
2022-10-17T17:10:23.569Z,40.74
2022-10-17T17:12:51.586Z,41.22
2022-10-17T17:15:19.499Z,40.82
2022-10-17T17:17:53.515Z,40.47
2022-10-17T17:20:23.275Z,38.89
2022-10-17T17:22:52.363Z,44.81
2022-10-17T17:25:20.323Z,51.79
2022-10-17T17:27:48.302Z,44.40
2022-10-17T17:30:16.390Z,42.30
2022-10-17T17:32:44.258Z,42.80
2022-10-17T17:35:12.163Z,42.00
2022-10-17T17:37:40.107Z,41.19
2022-10-17T17:40:08.439Z,41.27
2022-10-17T17:42:36.419Z,40.86
2022-10-17T17:45:04.895Z,40.07
2022-10-17T17:47:33.140Z,40.87
2022-10-17T17:50:02.444Z,39.91
2022-10-17T17:52:30.599Z,40.95
2022-10-17T17:54:58.724Z,42.08
2022-10-17T17:57:29.518Z,40.95
2022-10-17T17:59:57.462Z,40.56
2022-10-17T18:02:26.453Z,41.87
2022-10-17T18:04:54.563Z,42.27
2022-10-17T18:07:23.223Z,40.93
2022-10-17T18:09:51.725Z,39.67
2022-10-17T18:12:19.624Z,40.59
2022-10-17T18:14:47.744Z,40.27
2022-10-17T18:17:15.733Z,40.33
2022-10-17T18:19:43.647Z,39.88
2022-10-17T18:22:11.581Z,41.82
2022-10-17T18:24:39.487Z,41.17
2022-10-17T18:27:07.498Z,42.47
2022-10-17T18:29:35.443Z,42.37
2022-10-17T18:32:03.417Z,44.76
2022-10-17T18:34:31.380Z,44.29
2022-10-17T18:37:00.119Z,44.24
2022-10-17T18:39:28.651Z,44.84
2022-10-17T18:41:56.775Z,45.00
2022-10-17T18:44:24.846Z,44.76
2022-10-17T18:46:53.070Z,48.48
2022-10-17T18:49:25.022Z,48.78
2022-10-17T18:51:52.987Z,51.36
2022-10-17T18:54:22.168Z,58.14
2022-10-17T18:56:52.411Z,52.94
2022-10-17T18:59:21.357Z,49.16
2022-10-17T19:01:49.406Z,47.97
2022-10-17T19:04:17.558Z,45.59
2022-10-17T19:06:45.461Z,45.22
2022-10-17T19:09:15.051Z,42.75
2022-10-17T19:11:43.626Z,43.48
2022-10-17T19:14:13.751Z,43.69
2022-10-17T19:16:44.975Z,43.89
2022-10-17T19:19:14.010Z,45.46
2022-10-17T19:21:42.100Z,44.28
2022-10-17T19:24:16.528Z,43.87
2022-10-17T19:26:45.797Z,44.04
2022-10-17T19:29:15.500Z,44.37
2022-10-17T19:31:44.003Z,43.80
2022-10-17T19:34:13.291Z,43.87
2022-10-17T19:36:41.879Z,44.51
2022-10-17T19:39:15.773Z,43.64
2022-10-17T19:41:45.686Z,46.56
2022-10-17T19:44:14.734Z,44.68
2022-10-17T19:46:45.771Z,43.58
2022-10-17T19:49:13.884Z,44.43
2022-10-17T19:51:42.625Z,43.28
2022-10-17T19:54:10.908Z,44.14
2022-10-17T19:56:39.065Z,44.49
2022-10-17T19:59:07.930Z,43.85
2022-10-17T20:01:40.498Z,44.45
2022-10-17T20:04:10.825Z,43.90
2022-10-17T20:06:40.496Z,43.01
2022-10-17T20:09:11.175Z,42.86
2022-10-17T20:11:42.116Z,43.50
2022-10-17T20:14:10.202Z,44.67
2022-10-17T20:16:38.067Z,46.23
2022-10-17T20:19:11.721Z,44.57
2022-10-17T20:21:40.052Z,42.46
2022-10-17T20:24:11.087Z,42.52
2022-10-17T20:26:39.972Z,43.31
2022-10-17T20:29:24.082Z,41.90
2022-10-17T20:31:52.089Z,42.02
2022-10-17T20:34:20.075Z,43.07
2022-10-17T20:36:48.608Z,41.40
2022-10-17T20:39:18.677Z,42.66
2022-10-17T20:41:47.693Z,43.06
2022-10-17T20:44:15.977Z,42.75
2022-10-17T20:46:57.594Z,43.10
2022-10-17T20:49:29.988Z,42.62
2022-10-17T20:51:58.450Z,42.03
2022-10-17T20:54:28.377Z,42.29
2022-10-17T20:56:58.719Z,43.38
2022-10-17T20:59:29.410Z,44.36
2022-10-17T21:01:57.613Z,43.69
2022-10-17T21:04:46.480Z,42.61
2022-10-17T21:07:14.421Z,43.06
2022-10-17T21:09:42.406Z,42.94
2022-10-17T21:12:10.397Z,42.82
2022-10-17T21:14:38.259Z,43.64
2022-10-17T21:17:06.394Z,42.21
2022-10-17T21:19:34.354Z,42.92
2022-10-17T21:22:02.368Z,43.70
2022-10-17T21:24:30.889Z,44.65
2022-10-17T21:26:59.698Z,44.72
2022-10-17T21:29:27.659Z,45.13
2022-10-17T21:31:56.610Z,44.18
2022-10-17T21:34:25.115Z,42.46
2022-10-17T21:36:53.583Z,41.38
2022-10-17T21:39:24.174Z,41.83
2022-10-17T21:41:53.076Z,41.93
2022-10-17T21:44:26.438Z,42.41
2022-10-17T21:46:55.966Z,42.52
2022-10-17T21:49:25.361Z,42.04
2022-10-17T21:51:53.859Z,41.07
2022-10-17T21:54:23.573Z,40.74
2022-10-17T21:56:52.588Z,41.67
2022-10-17T21:59:20.627Z,44.38
2022-10-17T22:01:48.903Z,42.59
2022-10-17T22:04:18.954Z,41.88
2022-10-17T22:06:50.959Z,40.81
2022-10-17T22:09:23.289Z,41.44
2022-10-17T22:11:54.467Z,40.95
2022-10-17T22:14:24.789Z,40.34
2022-10-17T22:16:53.692Z,40.36
2022-10-17T22:19:24.687Z,39.91
2022-10-17T22:21:54.118Z,40.72
2022-10-17T22:24:23.178Z,41.51
2022-10-17T22:26:52.069Z,41.98
2022-10-17T22:29:20.653Z,42.82
2022-10-17T22:31:48.777Z,42.69
2022-10-17T22:34:17.950Z,40.91
2022-10-17T22:36:47.772Z,41.02
2022-10-17T22:39:16.016Z,41.07
2022-10-17T22:41:44.079Z,43.96
2022-10-17T22:44:12.044Z,43.92
2022-10-17T22:46:39.919Z,41.46
2022-10-17T22:49:07.857Z,41.61
2022-10-17T22:51:35.757Z,46.23
2022-10-17T22:54:03.783Z,47.08
2022-10-17T22:56:31.704Z,47.00
2022-10-17T22:58:59.594Z,46.20
2022-10-17T23:01:27.658Z,45.22
2022-10-17T23:03:55.658Z,45.90
2022-10-17T23:06:24.302Z,43.74
2022-10-17T23:08:52.488Z,42.63
2022-10-17T23:11:21.035Z,40.90
2022-10-17T23:13:49.441Z,37.83
2022-10-17T23:16:17.463Z,38.54
2022-10-17T23:18:45.504Z,38.18
2022-10-17T23:21:13.688Z,37.69
2022-10-17T23:23:41.622Z,37.09
2022-10-17T23:26:11.898Z,37.30
2022-10-17T23:28:41.101Z,37.25
2022-10-17T23:31:18.733Z,36.66
2022-10-17T23:33:48.719Z,36.31
2022-10-17T23:36:18.534Z,36.50
2022-10-17T23:38:47.909Z,36.78
2022-10-17T23:41:16.116Z,36.92
2022-10-17T23:43:44.840Z,37.12
2022-10-17T23:46:13.477Z,37.82
2022-10-17T23:48:41.670Z,35.33
2022-10-17T23:51:10.728Z,33.92
2022-10-17T23:53:39.955Z,33.76
2022-10-17T23:56:10.026Z,33.76
2022-10-17T23:58:39.131Z,34.30
